Time;durP1;ratioP1;P1;durP2;ratioP2;P2;SDS_P1;SDS_P2;PMS_P1;PMS_P2;Temp;Humidity;BMP_temperature;BMP_pressure;BME280_temperature;BME280_humidity;BME280_pressure;Samples;Min_cycle;Max_cycle;Signal;HPM_P1;HPM_P2
2022/10/18 00:01:02;;;;;;;14.63;10.20;;;;;;;14.02;100.00;102547.59;6180830;23;20036;-87
2022/10/18 00:03:27;;;;;;;18.38;11.25;;;;;;;14.04;100.00;102544.97;6180474;23;20005;-87
2022/10/18 00:05:53;;;;;;;18.02;10.18;;;;;;;14.04;100.00;102543.25;6181123;23;20435;-86
2022/10/18 00:08:19;;;;;;;18.88;11.27;;;;;;;14.07;100.00;102548.41;6181345;23;20008;-87
2022/10/18 00:10:45;;;;;;;16.52;10.88;;;;;;;14.04;100.00;102545.84;6178994;23;20455;-87
2022/10/18 00:13:11;;;;;;;16.58;11.13;;;;;;;14.08;100.00;102537.09;6179233;23;20080;-87
2022/10/18 00:15:36;;;;;;;17.90;10.90;;;;;;;14.04;100.00;102527.59;6182251;23;20005;-88
2022/10/18 00:18:02;;;;;;;16.83;11.13;;;;;;;14.03;100.00;102520.66;6181583;23;20055;-86
2022/10/18 00:20:27;;;;;;;17.85;10.95;;;;;;;14.05;100.00;102518.03;6178902;23;20000;-87
2022/10/18 00:22:53;;;;;;;15.83;10.20;;;;;;;14.09;100.00;102530.13;6179859;23;20041;-87
2022/10/18 00:25:18;;;;;;;17.48;11.50;;;;;;;14.09;100.00;102517.97;6181357;23;20228;-87
2022/10/18 00:27:44;;;;;;;18.17;11.82;;;;;;;14.08;100.00;102524.06;6181320;23;20005;-87
2022/10/18 00:30:09;;;;;;;20.38;11.50;;;;;;;14.09;100.00;102528.41;6180853;23;20050;-86
2022/10/18 00:32:40;;;;;;;17.75;11.20;;;;;;;14.09;100.00;102533.63;6179836;23;20066;-87
2022/10/18 00:35:06;;;;;;;17.75;11.50;;;;;;;14.07;100.00;102531.88;6180269;23;20064;-87
2022/10/18 00:37:32;;;;;;;16.95;11.10;;;;;;;14.08;100.00;102534.50;6181969;23;20001;-86
2022/10/18 00:39:58;;;;;;;15.93;11.13;;;;;;;14.09;100.00;102536.22;6181495;23;20004;-87
2022/10/18 00:42:28;;;;;;;18.92;11.10;;;;;;;14.08;100.00;102533.63;6179688;23;20093;-87
2022/10/18 00:45:15;;;;;;;16.30;11.48;;;;;;;14.11;100.00;102533.59;6176997;23;20020;-87
2022/10/18 00:47:44;;;;;;;18.95;11.05;;;;;;;14.09;100.00;102530.13;6181014;23;20378;-86
2022/10/18 00:50:10;;;;;;;17.02;11.93;;;;;;;14.10;100.00;102532.75;6177570;23;20047;-87
2022/10/18 00:52:42;;;;;;;17.60;11.27;;;;;;;14.07;100.00;102532.75;6180212;23;20012;-87
2022/10/18 00:55:08;;;;;;;18.33;11.80;;;;;;;14.07;100.00;102524.94;6180710;23;20005;-87
2022/10/18 00:57:35;;;;;;;18.13;11.38;;;;;;;14.08;100.00;102534.50;6181183;23;20447;-87
2022/10/18 01:00:06;;;;;;;19.70;12.05;;;;;;;14.07;100.00;102531.88;6181511;23;20083;-89
2022/10/18 01:02:31;;;;;;;15.95;11.07;;;;;;;14.10;100.00;102534.47;6180790;23;20063;-89
2022/10/18 01:04:57;;;;;;;19.98;11.75;;;;;;;14.07;100.00;102537.97;6179389;23;20032;-89
2022/10/18 01:07:25;;;;;;;16.77;11.50;;;;;;;14.07;100.00;102553.63;6179974;23;20012;-89
2022/10/18 01:09:57;;;;;;;20.17;12.63;;;;;;;14.05;100.00;102547.56;6179954;23;20324;-90
2022/10/18 01:12:50;;;;;;;18.77;12.32;;;;;;;14.08;100.00;102544.91;6180827;23;20447;-89
2022/10/18 01:15:24;;;;;;;20.27;12.30;;;;;;;14.10;100.00;102553.59;6179886;23;20028;-89
2022/10/18 01:18:07;;;;;;;19.48;11.02;;;;;;;14.12;100.00;102548.38;6179874;23;20032;-90
2022/10/18 01:20:40;;;;;;;19.50;11.63;;;;;;;14.11;100.00;102559.69;6180526;23;20001;-89
2022/10/18 01:23:28;;;;;;;17.70;11.02;;;;;;;14.11;100.00;102549.25;6180415;23;20001;-89
2022/10/18 01:26:06;;;;;;;17.48;11.82;;;;;;;14.09;100.00;102551.88;6180417;23;20005;-90
2022/10/18 01:28:49;;;;;;;17.95;11.48;;;;;;;14.06;100.00;102546.66;6179811;23;20005;-90
2022/10/18 01:31:20;;;;;;;22.83;11.60;;;;;;;14.07;100.00;102556.22;6179902;23;20015;-89
2022/10/18 01:34:05;;;;;;;19.33;11.65;;;;;;;14.10;100.00;102544.91;6180060;23;20435;-89
2022/10/18 01:36:34;;;;;;;18.30;11.50;;;;;;;14.05;100.00;102537.16;6180677;23;20084;-89
2022/10/18 01:39:05;;;;;;;15.95;11.52;;;;;;;14.06;100.00;102545.81;6180541;23;20339;-90
2022/10/18 01:41:33;;;;;;;17.17;11.32;;;;;;;14.04;100.00;102553.66;6181856;23;20075;-89
2022/10/18 01:44:01;;;;;;;18.25;11.90;;;;;;;14.03;100.00;102543.25;6180583;23;20466;-89
2022/10/18 01:46:28;;;;;;;17.42;11.23;;;;;;;14.04;100.00;102547.59;6180472;23;20427;-89
2022/10/18 01:48:55;;;;;;;17.88;12.10;;;;;;;14.04;100.00;102548.47;6180150;23;20017;-90
2022/10/18 01:51:31;;;;;;;18.92;10.65;;;;;;;14.04;100.00;102558.03;6180238;23;20001;-89
2022/10/18 01:53:57;;;;;;;15.75;11.10;;;;;;;14.02;100.00;102555.41;6181321;23;20004;-89
2022/10/18 01:56:44;;;;;;;17.02;10.73;;;;;;;14.05;100.00;102558.00;6178688;23;20011;-90
2022/10/18 01:59:29;;;;;;;17.10;11.07;;;;;;;14.04;100.00;102551.06;6179126;23;20086;-90
2022/10/18 02:02:00;;;;;;;16.48;11.00;;;;;;;14.02;100.00;102555.41;6180819;23;20375;-90
2022/10/18 02:04:41;;;;;;;17.70;11.30;;;;;;;14.02;100.00;102551.94;6179346;23;20009;-88
2022/10/18 02:07:27;;;;;;;16.58;11.07;;;;;;;14.01;100.00;102547.59;6179745;23;20008;-90
2022/10/18 02:10:09;;;;;;;19.38;12.20;;;;;;;13.99;100.00;102560.66;6178770;23;20457;-87
2022/10/18 02:12:39;;;;;;;19.27;12.25;;;;;;;14.01;100.00;102561.50;6180988;23;20001;-87
2022/10/18 02:15:06;;;;;;;15.98;10.88;;;;;;;13.99;100.00;102558.03;6178564;23;20008;-87
2022/10/18 02:17:32;;;;;;;19.02;11.93;;;;;;;13.99;100.00;102554.59;6179990;23;20352;-87
2022/10/18 02:20:00;;;;;;;19.52;12.07;;;;;;;13.98;100.00;102548.53;6180498;23;20079;-87
2022/10/18 02:22:30;;;;;;;15.05;11.45;;;;;;;13.98;100.00;102548.53;6180479;23;20450;-87
2022/10/18 02:24:57;;;;;;;16.08;11.05;;;;;;;13.97;100.00;102544.19;6178393;23;20008;-87
2022/10/18 02:27:23;;;;;;;15.82;11.27;;;;;;;13.94;100.00;102545.94;6179615;23;20423;-87
2022/10/18 02:29:49;;;;;;;18.48;11.20;;;;;;;13.94;100.00;102552.03;6178287;23;20092;-87
2022/10/18 02:32:26;;;;;;;19.48;12.25;;;;;;;13.93;100.00;102550.28;6180064;23;20065;-87
2022/10/18 02:35:14;;;;;;;18.05;11.23;;;;;;;13.93;100.00;102545.06;6178231;23;20032;-87
2022/10/18 02:37:41;;;;;;;26.27;13.32;;;;;;;13.89;100.00;102545.13;6179892;23;20036;-86
2022/10/18 02:40:09;;;;;;;21.90;12.18;;;;;;;13.88;100.00;102554.69;6180304;23;20408;-89
2022/10/18 02:42:44;;;;;;;17.55;10.82;;;;;;;13.89;100.00;102553.81;6179432;23;20005;-89
2022/10/18 02:45:10;;;;;;;20.70;12.23;;;;;;;13.87;100.00;102560.78;6177814;23;20311;-89
2022/10/18 02:47:36;;;;;;;18.67;12.18;;;;;;;13.87;100.00;102557.31;6178987;23;20005;-90
2022/10/18 02:50:01;;;;;;;18.17;11.27;;;;;;;13.82;100.00;102550.41;6179848;23;20017;-89
2022/10/18 02:52:26;;;;;;;18.95;12.20;;;;;;;13.84;100.00;102559.09;6180042;23;20271;-90
2022/10/18 02:54:52;;;;;;;18.87;11.80;;;;;;;13.77;100.00;102561.75;6180542;23;20005;-90
2022/10/18 02:57:17;;;;;;;16.60;11.67;;;;;;;13.83;100.00;102566.91;6179547;23;20263;-90
2022/10/18 02:59:42;;;;;;;16.67;11.07;;;;;;;13.81;100.00;102569.53;6178295;23;20243;-90
2022/10/18 03:02:07;;;;;;;18.07;11.77;;;;;;;13.81;100.00;102561.72;6179690;23;20058;-89
2022/10/18 03:04:33;;;;;;;17.83;11.38;;;;;;;13.80;100.00;102561.72;6178121;23;20247;-90
2022/10/18 03:06:58;;;;;;;18.83;11.27;;;;;;;13.79;100.00;102562.59;6176978;23;20105;-89
2022/10/18 03:09:23;;;;;;;18.00;11.48;;;;;;;13.78;100.00;102558.28;6177034;23;20075;-90
2022/10/18 03:11:49;;;;;;;19.73;11.77;;;;;;;13.81;100.00;102573.88;6178530;23;20028;-89
2022/10/18 03:14:14;;;;;;;17.60;11.23;;;;;;;13.80;100.00;102566.94;6176205;23;20001;-89
2022/10/18 03:16:40;;;;;;;20.23;12.40;;;;;;;13.81;100.00;102566.91;6179404;23;20256;-89
2022/10/18 03:19:05;;;;;;;18.48;11.90;;;;;;;13.82;100.00;102571.25;6179367;23;20008;-90
2022/10/18 03:21:30;;;;;;;18.77;11.35;;;;;;;13.83;100.00;102566.91;6177945;23;20015;-90
2022/10/18 03:23:57;;;;;;;22.65;11.60;;;;;;;13.81;100.00;102560.84;6179896;23;20009;-90
2022/10/18 03:26:22;;;;;;;20.13;11.52;;;;;;;13.82;100.00;102567.78;6179627;23;20050;-90
2022/10/18 03:28:48;;;;;;;19.73;11.52;;;;;;;13.82;100.00;102567.78;6180063;23;20076;-89
2022/10/18 03:31:13;;;;;;;17.25;11.85;;;;;;;13.84;100.00;102569.50;6180501;23;20001;-90
2022/10/18 03:33:38;;;;;;;17.63;12.48;;;;;;;13.82;100.00;102567.78;6178826;23;20052;-90
2022/10/18 03:36:04;;;;;;;19.52;12.45;;;;;;;13.82;100.00;102571.25;6179644;23;20084;-89
2022/10/18 03:38:29;;;;;;;22.00;13.13;;;;;;;13.82;100.00;102567.78;6180034;23;20001;-89
2022/10/18 03:40:55;;;;;;;19.48;11.27;;;;;;;13.84;100.00;102569.50;6178510;23;20067;-90
2022/10/18 03:43:20;;;;;;;19.80;11.15;;;;;;;13.85;100.00;102570.38;6180344;23;20425;-90
2022/10/18 03:45:45;;;;;;;17.50;11.75;;;;;;;13.85;100.00;102579.03;6180000;23;20043;-89
2022/10/18 03:48:11;;;;;;;17.02;11.68;;;;;;;13.84;100.00;102576.47;6178670;23;20742;-89
2022/10/18 03:50:36;;;;;;;22.15;14.10;;;;;;;13.84;100.00;102576.47;6177637;23;20021;-89
2022/10/18 03:53:01;;;;;;;19.95;12.65;;;;;;;13.84;100.00;102571.25;6179917;23;20092;-89
2022/10/18 03:55:27;;;;;;;19.27;12.25;;;;;;;13.85;100.00;102573.81;6179279;23;20005;-90
2022/10/18 03:57:52;;;;;;;19.58;12.60;;;;;;;13.85;100.00;102568.59;6180992;23;20087;-88
2022/10/18 04:00:17;;;;;;;23.88;13.85;;;;;;;13.85;100.00;102563.41;6178694;23;20047;-89
2022/10/18 04:02:43;;;;;;;23.17;14.35;;;;;;;13.85;100.00;102558.19;6180134;23;20079;-90
2022/10/18 04:05:08;;;;;;;23.93;13.73;;;;;;;13.87;100.00;102554.69;6180189;23;20008;-89
2022/10/18 04:07:34;;;;;;;23.90;13.98;;;;;;;13.90;100.00;102549.47;6180427;23;20268;-89
2022/10/18 04:10:00;;;;;;;21.75;13.65;;;;;;;13.88;100.00;102554.69;6179946;23;20047;-89
2022/10/18 04:12:25;;;;;;;20.05;12.60;;;;;;;13.90;100.00;102555.56;6178246;23;20037;-90
2022/10/18 04:14:50;;;;;;;24.30;13.95;;;;;;;13.89;100.00;102564.25;6180573;23;20542;-90
2022/10/18 04:17:16;;;;;;;19.92;12.80;;;;;;;13.91;100.00;102553.81;6177809;23;20001;-89
2022/10/18 04:19:41;;;;;;;23.20;12.98;;;;;;;13.90;100.00;102550.34;6178932;23;20005;-89
2022/10/18 04:22:08;;;;;;;28.95;15.35;;;;;;;13.91;100.00;102562.50;6178396;23;20036;-90
2022/10/18 04:24:33;;;;;;;24.15;14.23;;;;;;;13.88;100.00;102557.31;6180798;23;20012;-90
2022/10/18 04:26:58;;;;;;;26.60;13.97;;;;;;;13.88;100.00;102557.31;6181802;23;20005;-90
2022/10/18 04:29:23;;;;;;;35.03;16.23;;;;;;;13.86;100.00;102556.44;6181463;23;20847;-89
2022/10/18 04:31:49;;;;;;;29.53;14.87;;;;;;;13.90;100.00;102559.91;6181638;23;20282;-89
2022/10/18 04:34:14;;;;;;;27.13;13.55;;;;;;;13.87;100.00;102563.38;6181445;23;20237;-89
2022/10/18 04:36:39;;;;;;;33.30;15.55;;;;;;;13.87;100.00;102571.22;6181314;23;20454;-90
2022/10/18 04:39:05;;;;;;;36.08;16.75;;;;;;;13.87;100.00;102571.22;6181288;23;20028;-90
2022/10/18 04:41:30;;;;;;;33.58;16.63;;;;;;;13.89;100.00;102568.59;6180971;23;20008;-90
2022/10/18 04:43:55;;;;;;;34.30;16.90;;;;;;;13.89;100.00;102576.41;6180085;23;20347;-90
2022/10/18 04:46:21;;;;;;;35.55;18.20;;;;;;;13.88;100.00;102578.16;6180849;23;20422;-89
2022/10/18 04:48:46;;;;;;;38.92;18.17;;;;;;;13.88;100.00;102575.53;6182001;23;20450;-91
2022/10/18 04:51:11;;;;;;;39.17;19.13;;;;;;;13.90;100.00;102573.81;6182287;23;20506;-90
2022/10/18 04:53:37;;;;;;;37.40;19.20;;;;;;;13.91;100.00;102565.09;6181774;23;20032;-90
2022/10/18 04:56:02;;;;;;;39.50;19.13;;;;;;;13.90;100.00;102565.13;6180836;23;20012;-90
2022/10/18 04:58:27;;;;;;;36.10;18.23;;;;;;;13.90;100.00;102565.13;6181604;23;20375;-89
2022/10/18 05:00:53;;;;;;;34.13;18.37;;;;;;;13.91;100.00;102567.72;6182384;23;20005;-90
2022/10/18 05:03:18;;;;;;;44.95;19.65;;;;;;;13.89;100.00;102569.47;6181117;23;20234;-90
2022/10/18 05:05:44;;;;;;;37.50;19.30;;;;;;;13.87;100.00;102570.34;6181528;23;19993;-90
2022/10/18 05:08:10;;;;;;;33.53;19.75;;;;;;;13.84;100.00;102577.34;6178769;23;20008;-90
2022/10/18 05:10:36;;;;;;;35.92;19.40;;;;;;;13.83;100.00;102567.78;6180934;23;20001;-89
2022/10/18 05:13:03;;;;;;;35.53;19.70;;;;;;;13.82;100.00;102573.88;6181624;23;20001;-90
2022/10/18 05:15:28;;;;;;;33.15;19.23;;;;;;;13.80;100.00;102579.97;6182369;23;20008;-89
2022/10/18 05:17:54;;;;;;;37.00;20.38;;;;;;;13.80;100.00;102579.97;6182312;23;20005;-89
2022/10/18 05:20:19;;;;;;;33.73;20.10;;;;;;;13.79;100.00;102594.75;6180685;23;20572;-89
2022/10/18 05:22:44;;;;;;;36.47;20.60;;;;;;;13.78;100.00;102593.00;6181667;23;20239;-90
2022/10/18 05:25:10;;;;;;;39.17;20.85;;;;;;;13.73;100.00;102593.94;6181739;23;20008;-89
2022/10/18 05:27:35;;;;;;;32.42;20.15;;;;;;;13.75;100.00;102597.41;6182342;23;20001;-89
2022/10/18 05:30:01;;;;;;;37.03;19.80;;;;;;;13.73;100.00;102599.13;6179470;23;20052;-89
2022/10/18 05:32:26;;;;;;;43.78;20.52;;;;;;;13.70;100.00;102589.63;6178995;23;20001;-90
2022/10/18 05:34:51;;;;;;;36.33;19.27;;;;;;;13.72;100.00;102589.59;6180234;23;20005;-90
2022/10/18 05:37:17;;;;;;;32.17;19.47;;;;;;;13.68;100.00;102596.59;6181590;23;20087;-88
2022/10/18 05:39:43;;;;;;;36.35;19.65;;;;;;;13.71;100.00;102606.13;6181888;23;20307;-89
2022/10/18 05:42:08;;;;;;;35.92;20.42;;;;;;;13.71;100.00;102608.75;6180198;23;20001;-90
2022/10/18 05:44:33;;;;;;;37.97;22.02;;;;;;;13.70;100.00;102609.59;6180299;23;20361;-90
2022/10/18 05:46:59;;;;;;;34.95;20.00;;;;;;;13.71;100.00;102609.59;6177765;23;20427;-89
2022/10/18 05:49:24;;;;;;;35.60;21.10;;;;;;;13.69;100.00;102598.31;6180675;23;20009;-89
2022/10/18 05:51:50;;;;;;;35.35;21.05;;;;;;;13.68;100.00;102596.59;6181714;23;20032;-90
2022/10/18 05:54:15;;;;;;;47.97;20.65;;;;;;;13.65;100.00;102596.59;6181341;23;20447;-90
2022/10/18 05:56:40;;;;;;;34.67;20.30;;;;;;;13.67;100.00;102601.81;6181282;23;20028;-90
2022/10/18 05:59:10;;;;;;;35.83;19.95;;;;;;;13.66;100.00;102606.16;6178563;23;20005;-89
2022/10/18 06:01:39;;;;;;;34.28;20.55;;;;;;;13.63;100.00;102603.59;6178728;23;20056;-90
2022/10/18 06:04:05;;;;;;;31.10;18.88;;;;;;;13.64;100.00;102620.09;6180826;23;20083;-89
2022/10/18 06:06:31;;;;;;;34.75;20.90;;;;;;;13.61;100.00;102609.66;6178574;23;20028;-89
2022/10/18 06:08:57;;;;;;;34.13;19.40;;;;;;;13.59;100.00;102616.63;6180332;23;20001;-90
2022/10/18 06:11:23;;;;;;;32.17;18.98;;;;;;;13.54;100.00;102608.00;6181703;23;20005;-89
2022/10/18 06:13:50;;;;;;;32.60;20.50;;;;;;;13.55;100.00;102617.53;6181184;23;20007;-90
2022/10/18 06:16:18;;;;;;;32.25;20.30;;;;;;;13.51;100.00;102613.25;6176174;23;20005;-90
2022/10/18 06:18:52;;;;;;;35.22;19.05;;;;;;;13.52;100.00;102612.34;6180047;23;20033;-87
2022/10/18 06:21:19;;;;;;;38.42;19.60;;;;;;;13.47;100.00;102620.19;6178929;23;20012;-87
2022/10/18 06:23:52;;;;;;;34.13;19.92;;;;;;;13.49;100.00;102622.81;6179644;23;20139;-87
2022/10/18 06:26:18;;;;;;;32.17;19.63;;;;;;;13.47;100.00;102621.94;6181059;23;20330;-87
2022/10/18 06:28:43;;;;;;;32.90;20.15;;;;;;;13.49;100.00;102625.41;6179607;23;20384;-87
2022/10/18 06:31:10;;;;;;;34.50;20.50;;;;;;;13.48;100.00;102624.53;6181008;23;20008;-87
2022/10/18 06:33:36;;;;;;;37.35;20.50;;;;;;;13.45;100.00;102638.44;6181764;23;20023;-87
2022/10/18 06:36:03;;;;;;;34.47;19.65;;;;;;;13.50;100.00;102645.38;6180595;23;20005;-87
2022/10/18 06:38:29;;;;;;;33.15;19.95;;;;;;;13.50;100.00;102637.56;6180625;23;20005;-87
2022/10/18 06:40:56;;;;;;;35.55;18.85;;;;;;;13.50;100.00;102648.84;6180060;23;20035;-87
2022/10/18 06:43:22;;;;;;;34.95;20.02;;;;;;;13.54;100.00;102650.53;6181048;23;20000;-87
2022/10/18 06:45:48;;;;;;;57.13;20.88;;;;;;;13.56;100.00;102660.97;6179793;23;20019;-87
2022/10/18 06:48:14;;;;;;;35.50;19.98;;;;;;;13.59;100.00;102663.53;6180526;23;20032;-87
2022/10/18 06:50:39;;;;;;;33.25;19.42;;;;;;;13.61;100.00;102664.41;6181671;23;20044;-87
2022/10/18 06:53:07;;;;;;;68.63;20.90;;;;;;;13.59;100.00;102664.41;6179730;23;20033;-87
2022/10/18 06:55:33;;;;;;;73.22;21.05;;;;;;;13.62;100.00;102669.59;6179057;23;20009;-87
2022/10/18 06:57:58;;;;;;;87.60;21.42;;;;;;;13.61;100.00;102669.59;6179853;23;20009;-87
2022/10/18 07:00:24;;;;;;;67.90;20.63;;;;;;;13.61;100.00;102680.91;6180454;23;20080;-87
2022/10/18 07:02:49;;;;;;;55.63;18.25;;;;;;;13.61;100.00;102686.09;6179449;23;20005;-87
2022/10/18 07:05:14;;;;;;;56.20;18.52;;;;;;;13.62;100.00;102689.59;6179651;23;20007;-87
2022/10/18 07:07:40;;;;;;;45.60;17.27;;;;;;;13.65;100.00;102681.72;6179355;23;20008;-87
2022/10/18 07:10:06;;;;;;;40.60;16.30;;;;;;;13.63;100.00;102675.69;6180536;23;20005;-87
2022/10/18 07:12:32;;;;;;;35.15;15.93;;;;;;;13.66;100.00;102686.94;6181512;23;20328;-87
2022/10/18 07:14:57;;;;;;;26.30;16.00;;;;;;;13.72;100.00;102692.09;6178774;23;20044;-87
2022/10/18 07:17:23;;;;;;;37.22;15.70;;;;;;;13.77;100.00;102703.38;6179595;23;20008;-87
2022/10/18 07:19:48;;;;;;;40.85;15.98;;;;;;;13.78;100.00;102699.88;6181211;23;20155;-90
2022/10/18 07:22:14;;;;;;;49.47;16.20;;;;;;;13.87;100.00;102708.50;6179702;23;20438;-89
2022/10/18 07:24:39;;;;;;;39.53;15.73;;;;;;;13.85;100.00;102714.59;6178584;23;20005;-89
2022/10/18 07:27:04;;;;;;;43.58;15.52;;;;;;;13.87;100.00;102708.50;6181133;23;20001;-90
2022/10/18 07:29:30;;;;;;;43.53;15.30;;;;;;;13.90;100.00;102711.97;6180013;23;20039;-90
2022/10/18 07:31:55;;;;;;;35.30;15.02;;;;;;;13.82;100.00;102709.41;6180337;23;20012;-89
2022/10/18 07:34:21;;;;;;;29.13;14.95;;;;;;;13.91;100.00;102724.13;6181207;23;19996;-89
2022/10/18 07:36:46;;;;;;;32.97;14.45;;;;;;;13.90;100.00;102729.34;6180917;23;20001;-90
2022/10/18 07:39:11;;;;;;;35.17;14.60;;;;;;;13.87;100.00;102731.97;6179910;23;20050;-90
2022/10/18 07:41:37;;;;;;;30.40;13.93;;;;;;;13.88;100.00;102745.00;6179407;23;20244;-90
2022/10/18 07:44:03;;;;;;;31.75;14.13;;;;;;;13.82;100.00;102740.69;6179255;23;20614;-89
2022/10/18 07:46:28;;;;;;;36.08;13.77;;;;;;;13.88;100.00;102745.00;6181404;23;20176;-90
2022/10/18 07:48:54;;;;;;;28.17;13.45;;;;;;;13.85;100.00;102747.66;6180546;23;20351;-89
2022/10/18 07:51:20;;;;;;;26.88;14.18;;;;;;;13.85;100.00;102756.31;6179304;23;20020;-90
2022/10/18 07:53:45;;;;;;;22.38;13.25;;;;;;;13.83;100.00;102750.25;6179544;23;20064;-89
2022/10/18 07:56:16;;;;;;;27.00;13.48;;;;;;;13.86;100.00;102762.38;6178653;23;20008;-90
2022/10/18 07:58:42;;;;;;;31.83;14.13;;;;;;;13.85;100.00;102763.28;6178261;23;20036;-90
2022/10/18 08:01:08;;;;;;;29.48;14.68;;;;;;;13.87;100.00;102764.13;6182169;23;20016;-90
2022/10/18 08:03:36;;;;;;;28.88;14.43;;;;;;;13.93;100.00;102765.81;6181202;23;20013;-90
2022/10/18 08:06:02;;;;;;;30.83;15.05;;;;;;;13.95;100.00;102767.53;6180190;23;20001;-90
2022/10/18 08:08:28;;;;;;;31.05;14.38;;;;;;;13.90;100.00;102748.47;6177383;23;20012;-90
2022/10/18 08:10:54;;;;;;;31.95;15.82;;;;;;;14.00;100.00;102768.38;6179988;23;20068;-89
2022/10/18 08:13:20;;;;;;;33.42;16.20;;;;;;;14.01;100.00;102770.09;6183176;23;20004;-91
2022/10/18 08:15:46;;;;;;;32.22;15.70;;;;;;;14.12;100.00;102780.47;6180842;23;20008;-90
2022/10/18 08:18:11;;;;;;;29.98;16.20;;;;;;;14.09;100.00;102789.19;6181525;23;20035;-90
2022/10/18 08:20:41;;;;;;;35.40;16.77;;;;;;;14.10;100.00;102790.91;6180845;23;20004;-91
2022/10/18 08:23:07;;;;;;;37.40;17.30;;;;;;;14.10;100.00;102785.69;6181858;23;20004;-90
2022/10/18 08:25:32;;;;;;;34.33;16.35;;;;;;;14.10;100.00;102783.09;6180243;23;20305;-89
2022/10/18 08:27:58;;;;;;;36.40;17.10;;;;;;;14.16;100.00;102790.00;6180668;23;20335;-90
2022/10/18 08:30:23;;;;;;;34.10;16.85;;;;;;;14.13;100.00;102782.19;6182034;23;20015;-90
2022/10/18 08:32:49;;;;;;;34.10;16.67;;;;;;;14.18;100.00;102789.13;6181285;23;20008;-89
2022/10/18 08:35:14;;;;;;;41.37;18.57;;;;;;;14.18;100.00;102791.72;6182068;23;20001;-89
2022/10/18 08:37:39;;;;;;;34.28;18.38;;;;;;;14.16;100.00;102803.03;6182928;23;20242;-89
2022/10/18 08:40:05;;;;;;;33.22;18.13;;;;;;;14.10;100.00;102798.75;6180142;23;20487;-90
2022/10/18 08:43:06;;;;;;;39.88;19.20;;;;;;;14.10;100.00;102805.69;6182224;23;20008;-91
2022/10/18 08:45:35;;;;;;;39.17;18.63;;;;;;;14.05;100.00;102803.13;6182575;23;20005;-89
2022/10/18 08:48:04;;;;;;;37.70;20.23;;;;;;;14.02;100.00;102799.66;6180224;23;20064;-90
2022/10/18 08:50:36;;;;;;;37.90;19.70;;;;;;;14.05;100.00;102808.34;6181708;23;20013;-90
2022/10/18 08:53:28;;;;;;;37.92;19.88;;;;;;;14.10;100.00;102809.16;6181978;23;20020;-89
2022/10/18 08:56:13;;;;;;;42.53;21.02;;;;;;;14.09;100.00;102802.22;6181360;23;20005;-89
2022/10/18 08:58:39;;;;;;;42.25;20.45;;;;;;;14.08;100.00;102799.63;6181441;23;20009;-89
2022/10/18 09:01:39;;;;;;;34.03;19.63;;;;;;;14.11;100.00;102803.09;6182210;23;20084;-90
2022/10/18 09:04:16;;;;;;;38.80;19.67;;;;;;;14.08;100.00;102808.31;6181227;23;20114;-90
2022/10/18 09:06:54;;;;;;;41.05;19.88;;;;;;;14.04;100.00;102808.34;6182368;23;20011;-90
2022/10/18 09:09:41;;;;;;;40.45;18.98;;;;;;;13.97;100.00;102812.75;6181519;23;20008;-90
2022/10/18 09:12:52;;;;;;;39.55;18.17;;;;;;;14.00;100.00;102822.25;6181593;23;20001;-90
2022/10/18 09:15:26;;;;;;;35.92;18.35;;;;;;;13.96;100.00;102825.78;6180468;23;20013;-89
2022/10/18 09:18:05;;;;;;;32.17;17.70;;;;;;;13.95;100.00;102821.44;6182460;23;20515;-90
2022/10/18 09:20:45;;;;;;;37.90;18.85;;;;;;;13.97;100.00;102817.94;6180401;23;20013;-90
2022/10/18 09:23:25;;;;;;;35.83;18.05;;;;;;;14.01;100.00;102813.56;6179782;23;20001;-90
2022/10/18 09:26:08;;;;;;;34.08;17.92;;;;;;;14.02;100.00;102816.16;6181935;23;20526;-91
2022/10/18 09:28:57;;;;;;;37.70;17.90;;;;;;;14.06;100.00;102815.25;6180062;23;20009;-90
2022/10/18 09:31:47;;;;;;;40.17;16.73;;;;;;;14.08;100.00;102804.84;6179393;23;20079;-90
2022/10/18 09:34:24;;;;;;;29.98;15.32;;;;;;;14.12;100.00;102817.88;6181587;23;20005;-90
2022/10/18 09:36:51;;;;;;;31.58;14.63;;;;;;;14.10;100.00;102823.94;6179374;23;20017;-90
2022/10/18 09:39:24;;;;;;;29.80;11.40;;;;;;;14.09;100.00;102819.59;6181374;23;20478;-90
2022/10/18 09:41:57;;;;;;;23.30;10.85;;;;;;;14.05;100.00;102810.09;6180403;23;20493;-90
2022/10/18 09:44:24;;;;;;;23.65;10.75;;;;;;;14.03;100.00;102811.81;6179512;23;20005;-90
2022/10/18 09:46:58;;;;;;;27.73;10.93;;;;;;;14.04;100.00;102818.78;6181891;23;20031;-90
2022/10/18 09:49:44;;;;;;;;;;;;;;;14.12;100.00;102817.88;6182007;23;20092;-90
2022/10/18 09:52:18;;;;;;;24.60;11.02;;;;;;;14.11;100.00;102815.25;6177249;23;19908;-89
2022/10/18 09:54:53;;;;;;;25.98;11.80;;;;;;;14.13;100.00;102814.34;6181929;23;20008;-90
2022/10/18 09:57:52;;;;;;;22.88;11.70;;;;;;;14.18;100.00;102820.41;6180156;23;20080;-90
2022/10/18 10:00:23;;;;;;;23.05;10.45;;;;;;;14.23;100.00;102825.59;6180080;23;20078;-89
2022/10/18 10:02:48;;;;;;;22.40;9.52;;;;;;;14.27;100.00;102818.59;6181038;23;20076;-90
2022/10/18 10:05:14;;;;;;;24.30;10.60;;;;;;;14.30;100.00;102821.19;6178680;23;20083;-90
2022/10/18 10:07:42;;;;;;;22.70;9.35;;;;;;;14.32;100.00;102824.69;6179536;23;20233;-89
2022/10/18 10:10:28;;;;;;;23.17;8.80;;;;;;;14.38;100.00;102814.22;6180098;23;20012;-90
2022/10/18 10:13:15;;;;;;;21.52;8.95;;;;;;;14.39;100.00;102814.22;6176916;23;20013;-89
2022/10/18 10:15:51;;;;;;;25.10;9.70;;;;;;;14.33;100.00;102811.59;6180955;23;20005;-90
2022/10/18 10:18:23;;;;;;;26.90;11.05;;;;;;;14.34;100.00;102821.16;6178476;23;20346;-89
2022/10/18 10:20:56;;;;;;;21.33;10.65;;;;;;;14.39;100.00;102823.78;6177832;23;20001;-89
2022/10/18 10:23:58;;;;;;;20.42;9.13;;;;;;;14.49;100.00;102834.13;6179094;23;20012;-89
2022/10/18 10:26:27;;;;;;;17.23;7.53;;;;;;;14.48;100.00;102831.50;6062666;23;20006;-90
2022/10/18 10:28:53;;;;;;;18.73;7.32;;;;;;;14.52;100.00;102823.66;6156666;23;20350;-89
2022/10/18 10:31:33;;;;;;;19.30;6.40;;;;;;;14.56;100.00;102827.09;6181356;23;20419;-90
2022/10/18 10:34:14;;;;;;;15.70;6.72;;;;;;;14.60;100.00;102832.28;6179403;23;20072;-90
2022/10/18 10:36:48;;;;;;;19.08;6.25;;;;;;;14.58;100.00;102834.06;6179663;23;20024;-90
2022/10/18 10:39:17;;;;;;;14.57;5.68;;;;;;;14.57;100.00;102844.50;6180531;23;20005;-89
2022/10/18 10:41:47;;;;;;;14.88;5.72;;;;;;;14.61;100.00;102857.50;6178079;23;20008;-90
2022/10/18 10:44:15;;;;;;;13.70;5.22;;;;;;;14.61;100.00;102843.59;6180975;23;20005;-89
2022/10/18 10:46:40;;;;;;;12.50;3.80;;;;;;;14.60;100.00;102847.94;6182037;23;20005;-90
2022/10/18 10:49:18;;;;;;;14.90;4.30;;;;;;;14.65;100.00;102854.88;6180601;23;20055;-90
2022/10/18 10:51:44;;;;;;;14.68;6.03;;;;;;;14.70;100.00;102853.97;6180860;23;20005;-90
2022/10/18 10:54:20;;;;;;;15.65;5.75;;;;;;;14.74;100.00;102853.03;6180837;23;20104;-89
2022/10/18 10:56:57;;;;;;;13.07;6.10;;;;;;;14.81;100.00;102852.09;6178652;23;20268;-90
2022/10/18 10:59:26;;;;;;;16.05;5.00;;;;;;;14.84;100.00;102862.53;6181124;23;20039;-90
2022/10/18 11:02:16;;;;;;;13.57;4.57;;;;;;;14.92;100.00;102855.50;6181119;23;20008;-90
2022/10/18 11:04:46;;;;;;;10.50;4.38;;;;;;;14.95;100.00;102851.97;6180426;23;20044;-89
2022/10/18 11:07:26;;;;;;;8.02;4.10;;;;;;;14.94;100.00;102858.94;6179347;23;19997;-89
2022/10/18 11:10:01;;;;;;;11.43;5.45;;;;;;;14.91;100.00;102866.81;6180444;23;20103;-88
2022/10/18 11:12:47;;;;;;;15.38;5.97;;;;;;;14.85;100.00;102861.66;6176134;23;20036;-88